Time;durP1;ratioP1;P1;durP2;ratioP2;P2;SDS_P1;SDS_P2;PMS_P1;PMS_P2;Temp;Humidity;BMP_temperature;BMP_pressure;BME280_temperature;BME280_humidity;BME280_pressure;Samples;Min_cycle;Max_cycle;Signal;HPM_P1;HPM_P2
2023/01/02 00:00:59;;;;;;;21.53;11.03;;;;;;;;;;4934164;29;20226;-63
2023/01/02 00:03:26;;;;;;;24.40;12.23;;;;;;;;;;4951442;29;20216;-63
2023/01/02 00:05:53;;;;;;;25.50;13.67;;;;;;;;;;4951200;29;20225;-64
2023/01/02 00:08:20;;;;;;;23.60;12.73;;;;;;;;;;4951285;29;20717;-63
2023/01/02 00:10:47;;;;;;;28.60;13.73;;;;;;;;;;4951226;28;20202;-63
2023/01/02 00:13:18;;;;;;;23.43;11.93;;;;;;;;;;4933849;29;20703;-63
2023/01/02 00:15:45;;;;;;;21.63;11.73;;;;;;;;;;4951201;29;20186;-63
2023/01/02 00:18:11;;;;;;;22.60;11.87;;;;;;;;;;4950335;29;20190;-63
2023/01/02 00:20:38;;;;;;;21.67;11.97;;;;;;;;;;4951123;29;20199;-64
2023/01/02 00:23:05;;;;;;;19.97;10.40;;;;;;;;;;4951148;28;20197;-63
2023/01/02 00:25:33;;;;;;;18.80;9.93;;;;;;;;;;4939049;29;20322;-64
2023/01/02 00:28:00;;;;;;;18.57;9.93;;;;;;;;;;4913309;29;20196;-63
2023/01/02 00:30:27;;;;;;;17.20;7.93;;;;;;;;;;4904685;29;20236;-63
2023/01/02 00:33:03;;;;;;;13.80;8.47;;;;;;;;;;4894227;29;20234;-63
2023/01/02 00:35:30;;;;;;;15.17;7.63;;;;;;;;;;4908393;29;20208;-64
2023/01/02 00:37:56;;;;;;;15.30;8.20;;;;;;;;;;4894362;29;20207;-63
2023/01/02 00:40:23;;;;;;;15.43;7.20;;;;;;;;;;4894042;29;20211;-63
2023/01/02 00:42:50;;;;;;;13.17;5.87;;;;;;;;;;4896119;29;20279;-63
2023/01/02 00:45:16;;;;;;;14.17;6.23;;;;;;;;;;4897888;29;20196;-63
2023/01/02 00:47:43;;;;;;;9.33;5.30;;;;;;;;;;4897339;29;20260;-64
2023/01/02 00:50:09;;;;;;;13.77;5.93;;;;;;;;;;4897628;29;20196;-63
2023/01/02 00:52:36;;;;;;;10.50;5.60;;;;;;;;;;4899625;29;20282;-63
2023/01/02 00:55:03;;;;;;;13.90;6.20;;;;;;;;;;4915152;29;21041;-63
2023/01/02 00:57:30;;;;;;;12.23;5.83;;;;;;;;;;4916307;29;20553;-63
2023/01/02 00:59:57;;;;;;;11.90;6.00;;;;;;;;;;4916324;29;20259;-63
2023/01/02 01:02:24;;;;;;;10.70;5.63;;;;;;;;;;4915826;29;20300;-64
2023/01/02 01:04:51;;;;;;;15.87;6.33;;;;;;;;;;4916191;29;20199;-63
2023/01/02 01:07:18;;;;;;;11.30;5.60;;;;;;;;;;4916008;29;20247;-63
2023/01/02 01:09:44;;;;;;;12.70;5.93;;;;;;;;;;4915821;29;20588;-63
2023/01/02 01:12:11;;;;;;;10.43;5.53;;;;;;;;;;4916190;29;20198;-63
2023/01/02 01:14:38;;;;;;;13.13;5.67;;;;;;;;;;4916228;29;20686;-63
2023/01/02 01:17:04;;;;;;;12.70;6.63;;;;;;;;;;4928951;29;20200;-63
2023/01/02 01:19:31;;;;;;;14.83;7.07;;;;;;;;;;4915683;29;20647;-64
2023/01/02 01:21:58;;;;;;;12.50;6.10;;;;;;;;;;4915838;29;20190;-64
2023/01/02 01:24:24;;;;;;;14.70;6.97;;;;;;;;;;4915682;29;20659;-64
2023/01/02 01:27:09;;;;;;;12.83;6.30;;;;;;;;;;4930273;29;20678;-64
2023/01/02 01:29:35;;;;;;;16.57;7.33;;;;;;;;;;4915615;29;20200;-63
2023/01/02 01:32:02;;;;;;;14.50;7.33;;;;;;;;;;4915650;29;20274;-63
2023/01/02 01:34:29;;;;;;;16.87;8.30;;;;;;;;;;4921382;29;20557;-64
2023/01/02 01:36:55;;;;;;;15.17;7.77;;;;;;;;;;4911014;29;20275;-63
2023/01/02 01:39:22;;;;;;;12.80;7.37;;;;;;;;;;4896850;29;20558;-64
2023/01/02 02:17:40;;;;;;;8.13;3.87;;;;;;;;;;4914820;29;20192;-63
2023/01/02 02:20:28;;;;;;;10.17;3.53;;;;;;;;;;4914910;29;20170;-63
2023/01/02 02:23:04;;;;;;;8.73;3.33;;;;;;;;;;4913452;29;20203;-63
2023/01/02 02:25:34;;;;;;;6.93;2.80;;;;;;;;;;4928773;29;20227;-64
2023/01/02 02:28:03;;;;;;;6.30;3.37;;;;;;;;;;4914966;29;20600;-63
2023/01/02 02:30:39;;;;;;;7.80;3.00;;;;;;;;;;4915007;29;20182;-63
2023/01/02 02:33:21;;;;;;;10.10;2.90;;;;;;;;;;4929076;29;20286;-63
2023/01/02 02:35:48;;;;;;;9.80;3.70;;;;;;;;;;4927739;29;20279;-63
2023/01/02 02:38:38;;;;;;;10.40;3.50;;;;;;;;;;4914478;29;20178;-63
2023/01/02 02:41:24;;;;;;;7.87;3.23;;;;;;;;;;4914475;29;20199;-63
2023/01/02 02:43:59;;;;;;;12.67;3.80;;;;;;;;;;4914434;29;20228;-63
2023/01/02 02:46:32;;;;;;;7.30;3.10;;;;;;;;;;4914264;29;20603;-63
2023/01/02 02:49:08;;;;;;;7.07;3.73;;;;;;;;;;4914233;29;20662;-63
2023/01/02 02:51:36;;;;;;;8.30;3.47;;;;;;;;;;4914489;29;20222;-63
2023/01/02 02:54:16;;;;;;;7.97;3.40;;;;;;;;;;4913435;29;20215;-63
2023/01/02 02:56:43;;;;;;;7.47;3.43;;;;;;;;;;4913908;29;20957;-64
2023/01/02 02:59:27;;;;;;;6.47;3.33;;;;;;;;;;4926694;29;20266;-63
2023/01/02 03:01:53;;;;;;;6.80;3.00;;;;;;;;;;4928698;29;20238;-63
2023/01/02 03:04:21;;;;;;;7.63;3.93;;;;;;;;;;4913697;29;20230;-63
2023/01/02 03:07:13;;;;;;;8.67;3.40;;;;;;;;;;4914009;29;20255;-63
2023/01/02 03:09:47;;;;;;;6.03;3.13;;;;;;;;;;4887345;29;20596;-63
2023/01/02 03:12:15;;;;;;;6.40;2.97;;;;;;;;;;4909991;29;20222;-63
2023/01/02 03:15:02;;;;;;;8.80;3.60;;;;;;;;;;4895039;29;20230;-63
2023/01/02 03:17:36;;;;;;;6.80;3.57;;;;;;;;;;4888018;29;20250;-64
2023/01/02 03:20:06;;;;;;;7.07;3.87;;;;;;;;;;4909415;29;20865;-63
2023/01/02 03:22:33;;;;;;;11.47;3.70;;;;;;;;;;4909571;29;20612;-63
2023/01/02 03:25:00;;;;;;;11.43;3.53;;;;;;;;;;4894650;29;20726;-63
2023/01/02 03:27:27;;;;;;;8.93;3.40;;;;;;;;;;4908981;29;20247;-62
2023/01/02 03:29:54;;;;;;;8.70;3.70;;;;;;;;;;4928168;29;20084;-62
2023/01/02 03:32:22;;;;;;;8.03;3.47;;;;;;;;;;4913994;29;20254;-64
2023/01/02 03:34:48;;;;;;;5.90;3.60;;;;;;;;;;4912009;29;20253;-64
2023/01/02 03:37:18;;;;;;;6.73;3.87;;;;;;;;;;4913848;29;20239;-64
2023/01/02 03:39:47;;;;;;;10.13;3.73;;;;;;;;;;4927738;29;20655;-64
2023/01/02 03:42:15;;;;;;;10.37;4.83;;;;;;;;;;4908634;29;20246;-63
2023/01/02 03:44:46;;;;;;;10.37;3.40;;;;;;;;;;4901576;29;20204;-64
2023/01/02 03:47:12;;;;;;;9.23;3.57;;;;;;;;;;4909401;29;20207;-63
2023/01/02 03:49:40;;;;;;;8.73;3.67;;;;;;;;;;4894567;29;20188;-63
2023/01/02 03:52:06;;;;;;;7.30;3.30;;;;;;;;;;4894629;29;20539;-63
2023/01/02 03:54:33;;;;;;;7.30;3.57;;;;;;;;;;4907198;29;20212;-64
2023/01/02 03:57:01;;;;;;;6.57;3.40;;;;;;;;;;4909364;29;20184;-64
2023/01/02 03:59:43;;;;;;;7.27;3.10;;;;;;;;;;4908839;29;20295;-64
2023/01/02 04:02:15;;;;;;;9.03;3.70;;;;;;;;;;4894570;29;20191;-63
2023/01/02 04:04:51;;;;;;;7.83;3.37;;;;;;;;;;4912917;29;20587;-65
2023/01/02 04:07:19;;;;;;;9.27;3.70;;;;;;;;;;4920787;29;20183;-63
2023/01/02 04:09:46;;;;;;;8.50;3.90;;;;;;;;;;4908366;29;20199;-63
2023/01/02 04:12:14;;;;;;;8.37;3.50;;;;;;;;;;4894588;29;20279;-63
2023/01/02 04:14:58;;;;;;;6.40;3.37;;;;;;;;;;4911226;29;20199;-62
2023/01/02 04:17:25;;;;;;;7.43;3.80;;;;;;;;;;4915033;29;20615;-65
2023/01/02 04:19:53;;;;;;;8.33;3.93;;;;;;;;;;4915649;29;20172;-63
2023/01/02 04:22:23;;;;;;;7.90;3.90;;;;;;;;;;4903771;29;20195;-66
2023/01/02 04:24:53;;;;;;;11.83;4.63;;;;;;;;;;4913091;29;20260;-64
2023/01/02 04:27:24;;;;;;;7.87;3.97;;;;;;;;;;4914589;29;20243;-64
2023/01/02 04:29:50;;;;;;;10.87;3.93;;;;;;;;;;4911873;29;20777;-66
2023/01/02 04:32:22;;;;;;;11.10;4.00;;;;;;;;;;4929142;29;20183;-66
2023/01/02 04:34:48;;;;;;;8.07;3.57;;;;;;;;;;4897663;29;20208;-65
2023/01/02 04:37:30;;;;;;;8.43;3.70;;;;;;;;;;4914903;29;20247;-67
2023/01/02 04:40:16;;;;;;;8.07;3.77;;;;;;;;;;4913375;29;20223;-65
2023/01/02 04:42:43;;;;;;;6.83;3.87;;;;;;;;;;4919031;29;20243;-64
2023/01/02 04:45:27;;;;;;;9.17;3.60;;;;;;;;;;4915096;29;20237;-64
2023/01/02 04:47:54;;;;;;;8.87;3.67;;;;;;;;;;4916971;29;20200;-63
2023/01/02 04:50:38;;;;;;;9.90;4.17;;;;;;;;;;4914864;29;20160;-63
2023/01/02 04:53:04;;;;;;;6.53;3.60;;;;;;;;;;4881771;29;20664;-63
2023/01/02 04:55:53;;;;;;;9.23;3.93;;;;;;;;;;4914790;29;20184;-63
2023/01/02 04:58:20;;;;;;;7.40;4.07;;;;;;;;;;4914503;29;20262;-65
2023/01/02 05:00:47;;;;;;;6.93;3.80;;;;;;;;;;4914806;29;20204;-66
2023/01/02 05:03:14;;;;;;;8.77;3.50;;;;;;;;;;4930605;29;20195;-63
2023/01/02 05:05:40;;;;;;;8.03;3.83;;;;;;;;;;4933265;29;20468;-63
2023/01/02 05:08:07;;;;;;;9.10;3.63;;;;;;;;;;4914309;29;20279;-65
2023/01/02 05:10:41;;;;;;;8.27;4.27;;;;;;;;;;4914515;29;20716;-65
2023/01/02 05:13:08;;;;;;;7.40;4.10;;;;;;;;;;4912822;29;20188;-65
2023/01/02 05:15:35;;;;;;;8.03;4.47;;;;;;;;;;4914508;29;20220;-63
2023/01/02 05:18:01;;;;;;;9.27;4.20;;;;;;;;;;4914582;29;20207;-66
2023/01/02 05:20:46;;;;;;;8.97;4.60;;;;;;;;;;4914242;29;20198;-64
2023/01/02 05:26:16;;;;;;;7.27;4.27;;;;;;;;;;4912669;29;20270;-65
2023/01/02 05:28:42;;;;;;;9.47;4.60;;;;;;;;;;4890457;29;20279;-66
2023/01/02 05:31:09;;;;;;;10.50;4.53;;;;;;;;;;4909406;29;20547;-64
2023/01/02 05:33:36;;;;;;;11.60;4.80;;;;;;;;;;4910766;29;20228;-64
2023/01/02 05:36:04;;;;;;;7.47;4.90;;;;;;;;;;4915218;29;20196;-65
2023/01/02 05:38:48;;;;;;;11.33;4.70;;;;;;;;;;4916138;29;20190;-64
2023/01/02 05:41:15;;;;;;;10.13;4.40;;;;;;;;;;4914896;29;20195;-64
2023/01/02 05:43:42;;;;;;;10.37;4.77;;;;;;;;;;4915977;29;20227;-64
2023/01/02 05:46:09;;;;;;;9.30;5.10;;;;;;;;;;4901689;29;20199;-64
2023/01/02 05:48:36;;;;;;;7.67;4.70;;;;;;;;;;4916473;29;20196;-64
2023/01/02 05:51:20;;;;;;;9.97;4.63;;;;;;;;;;4909824;29;20186;-64
2023/01/02 05:53:47;;;;;;;11.47;4.57;;;;;;;;;;4915136;29;20679;-64
2023/01/02 05:56:15;;;;;;;8.13;4.30;;;;;;;;;;4911547;29;20191;-66
2023/01/02 05:58:45;;;;;;;10.53;5.33;;;;;;;;;;4911780;29;20654;-64
2023/01/02 06:01:19;;;;;;;12.00;6.23;;;;;;;;;;4911543;29;20206;-64
2023/01/02 06:03:46;;;;;;;14.30;6.47;;;;;;;;;;4913738;29;20285;-63
2023/01/02 06:06:13;;;;;;;12.37;5.67;;;;;;;;;;4918448;29;20282;-65
2023/01/02 06:08:40;;;;;;;15.20;6.67;;;;;;;;;;4909941;29;20199;-67
2023/01/02 06:11:07;;;;;;;11.97;5.90;;;;;;;;;;4914692;29;20274;-65
2023/01/02 06:13:34;;;;;;;10.87;5.57;;;;;;;;;;4913854;29;20191;-66
2023/01/02 06:16:01;;;;;;;11.67;6.20;;;;;;;;;;4909936;29;20190;-67
2023/01/02 06:18:29;;;;;;;11.83;5.63;;;;;;;;;;4910647;29;20183;-65
2023/01/02 06:21:05;;;;;;;12.60;5.30;;;;;;;;;;4911768;29;20196;-66
2023/01/02 06:23:32;;;;;;;12.10;5.60;;;;;;;;;;4913261;29;20266;-65
2023/01/02 06:26:05;;;;;;;11.67;5.23;;;;;;;;;;4912901;29;20235;-65
2023/01/02 06:28:32;;;;;;;8.10;4.83;;;;;;;;;;4912558;29;20194;-63
2023/01/02 06:31:00;;;;;;;11.80;5.40;;;;;;;;;;4914238;29;20742;-66
2023/01/02 06:33:27;;;;;;;9.47;5.10;;;;;;;;;;4911983;29;20215;-63
2023/01/02 06:36:00;;;;;;;16.70;5.80;;;;;;;;;;4903812;29;20259;-63
2023/01/02 06:38:27;;;;;;;9.80;5.20;;;;;;;;;;4895748;29;20181;-63
2023/01/02 06:40:55;;;;;;;14.77;5.80;;;;;;;;;;4893785;29;20185;-63
2023/01/02 06:43:22;;;;;;;13.83;5.83;;;;;;;;;;4895655;29;20271;-63
2023/01/02 06:45:49;;;;;;;12.90;5.53;;;;;;;;;;4895612;29;20211;-63
2023/01/02 06:48:16;;;;;;;12.17;6.27;;;;;;;;;;4910390;29;20184;-63
2023/01/02 06:50:43;;;;;;;13.67;6.83;;;;;;;;;;4895564;29;20664;-63
2023/01/02 06:53:10;;;;;;;13.07;6.43;;;;;;;;;;4902033;29;20202;-64
2023/01/02 06:55:36;;;;;;;13.90;6.93;;;;;;;;;;4908700;29;20815;-64
2023/01/02 06:58:03;;;;;;;13.90;6.67;;;;;;;;;;4911410;29;20279;-64
2023/01/02 07:00:37;;;;;;;17.57;7.20;;;;;;;;;;4908759;29;20187;-64
2023/01/02 07:03:04;;;;;;;13.77;7.90;;;;;;;;;;4912039;29;20196;-65
2023/01/02 07:05:31;;;;;;;18.43;8.43;;;;;;;;;;4911435;29;20476;-67
2023/01/02 07:07:58;;;;;;;15.60;7.63;;;;;;;;;;4912214;29;20222;-65
2023/01/02 07:10:25;;;;;;;19.07;7.93;;;;;;;;;;4911765;29;20195;-65
2023/01/02 07:12:52;;;;;;;16.73;8.00;;;;;;;;;;4912582;29;20230;-66
2023/01/02 07:15:19;;;;;;;16.37;7.97;;;;;;;;;;4911564;29;20243;-65
2023/01/02 07:17:46;;;;;;;15.40;9.20;;;;;;;;;;4911634;29;20659;-64
2023/01/02 07:20:30;;;;;;;17.23;8.83;;;;;;;;;;4911793;29;20752;-64
2023/01/02 07:22:57;;;;;;;21.70;9.67;;;;;;;;;;4911011;29;20194;-64
2023/01/02 07:25:23;;;;;;;14.73;8.63;;;;;;;;;;4910728;29;20295;-65
2023/01/02 07:27:50;;;;;;;14.47;8.17;;;;;;;;;;4912049;29;20247;-64
2023/01/02 07:30:17;;;;;;;14.57;8.50;;;;;;;;;;4912034;29;20195;-65
2023/01/02 07:32:44;;;;;;;17.00;8.80;;;;;;;;;;4912267;29;20207;-64
2023/01/02 07:35:11;;;;;;;17.53;9.90;;;;;;;;;;4911966;29;20233;-64
2023/01/02 07:37:37;;;;;;;17.63;9.53;;;;;;;;;;4911607;29;20199;-63
2023/01/02 07:40:04;;;;;;;19.43;10.03;;;;;;;;;;4910996;29;20595;-63
2023/01/02 07:42:31;;;;;;;24.00;11.37;;;;;;;;;;4911765;29;20262;-63
2023/01/02 07:44:57;;;;;;;21.37;11.97;;;;;;;;;;4912246;29;20727;-64
2023/01/02 07:47:24;;;;;;;25.27;13.03;;;;;;;;;;4911373;29;20219;-63
2023/01/02 07:49:51;;;;;;;24.17;13.87;;;;;;;;;;4912162;29;20210;-63
2023/01/02 07:52:17;;;;;;;25.30;14.23;;;;;;;;;;4908699;29;20196;-64
2023/01/02 07:54:44;;;;;;;22.93;12.97;;;;;;;;;;4896677;29;20211;-65
2023/01/02 07:57:11;;;;;;;25.50;13.53;;;;;;;;;;4909921;29;20251;-65
2023/01/02 07:59:37;;;;;;;27.43;14.43;;;;;;;;;;4906616;29;20302;-64
2023/01/02 08:02:04;;;;;;;25.43;14.90;;;;;;;;;;4915041;29;20203;-64
2023/01/02 08:04:31;;;;;;;26.30;14.93;;;;;;;;;;4915599;29;20199;-64
2023/01/02 08:06:58;;;;;;;26.13;15.33;;;;;;;;;;4915865;29;20544;-64
2023/01/02 08:09:24;;;;;;;27.43;15.20;;;;;;;;;;4915358;29;20191;-64
2023/01/02 08:11:51;;;;;;;25.67;16.00;;;;;;;;;;4915444;29;20222;-63
2023/01/02 08:14:18;;;;;;;28.27;15.53;;;;;;;;;;4915671;29;20203;-65
2023/01/02 08:16:49;;;;;;;27.33;16.40;;;;;;;;;;4914759;29;20210;-63
2023/01/02 08:19:16;;;;;;;29.23;16.60;;;;;;;;;;4902585;29;20634;-63
2023/01/02 08:21:42;;;;;;;27.30;15.20;;;;;;;;;;4907784;29;20259;-64
2023/01/02 08:24:09;;;;;;;30.57;16.87;;;;;;;;;;4915538;29;20203;-64
2023/01/02 08:26:37;;;;;;;27.93;17.03;;;;;;;;;;4914179;29;20762;-63
2023/01/02 08:29:04;;;;;;;31.43;17.00;;;;;;;;;;4915015;29;20843;-64
2023/01/02 08:31:30;;;;;;;33.67;18.30;;;;;;;;;;4916805;29;20258;-64
2023/01/02 08:33:57;;;;;;;31.03;18.73;;;;;;;;;;4916612;29;20188;-61
2023/01/02 08:36:24;;;;;;;33.80;18.80;;;;;;;;;;4916682;29;20215;-63
2023/01/02 08:38:50;;;;;;;32.70;17.80;;;;;;;;;;4916378;29;20738;-63
2023/01/02 08:41:33;;;;;;;33.50;18.70;;;;;;;;;;4915261;29;20231;-62
2023/01/02 08:44:17;;;;;;;32.10;18.50;;;;;;;;;;4916436;29;20263;-62
2023/01/02 08:46:43;;;;;;;30.90;18.53;;;;;;;;;;4916228;29;20224;-62
2023/01/02 08:49:11;;;;;;;32.97;19.40;;;;;;;;;;4916106;29;20191;-61
2023/01/02 08:51:37;;;;;;;37.10;18.87;;;;;;;;;;4916686;29;20615;-63
2023/01/02 08:54:04;;;;;;;33.33;18.97;;;;;;;;;;4916290;29;20195;-62
2023/01/02 08:56:31;;;;;;;38.40;21.20;;;;;;;;;;4914931;29;20230;-62
2023/01/02 08:58:58;;;;;;;38.67;19.57;;;;;;;;;;4916363;29;20195;-63
2023/01/02 09:01:25;;;;;;;41.13;20.23;;;;;;;;;;4915878;29;20738;-63
2023/01/02 09:03:52;;;;;;;39.50;19.53;;;;;;;;;;4915463;29;20198;-63
2023/01/02 09:06:19;;;;;;;37.40;21.30;;;;;;;;;;4915231;29;20200;-65
2023/01/02 09:08:48;;;;;;;37.67;19.53;;;;;;;;;;4911451;29;20205;-62
2023/01/02 09:11:16;;;;;;;34.43;20.07;;;;;;;;;;4899260;29;20624;-64
2023/01/02 09:13:43;;;;;;;34.50;19.17;;;;;;;;;;4913991;29;20814;-63
2023/01/02 09:16:09;;;;;;;39.07;20.30;;;;;;;;;;4912018;29;20250;-62
2023/01/02 09:18:57;;;;;;;42.40;20.27;;;;;;;;;;4914245;29;20179;-64
2023/01/02 09:21:23;;;;;;;42.03;20.23;;;;;;;;;;4913124;29;20203;-64
2023/01/02 09:24:08;;;;;;;38.80;21.80;;;;;;;;;;4914622;29;20175;-65
2023/01/02 09:26:36;;;;;;;34.07;20.07;;;;;;;;;;4912193;29;20246;-62
2023/01/02 09:29:03;;;;;;;30.77;17.50;;;;;;;;;;4914171;29;20191;-62
2023/01/02 09:31:30;;;;;;;30.83;17.93;;;;;;;;;;4913933;29;20191;-63
2023/01/02 09:33:57;;;;;;;26.63;15.63;;;;;;;;;;4917713;29;20204;-63
2023/01/02 09:36:24;;;;;;;24.63;14.07;;;;;;;;;;4913219;29;20227;-64
2023/01/02 09:38:58;;;;;;;27.63;15.27;;;;;;;;;;4912445;29;20204;-64
2023/01/02 09:41:24;;;;;;;27.47;15.40;;;;;;;;;;4914420;29;20207;-63
2023/01/02 09:43:52;;;;;;;29.13;15.00;;;;;;;;;;4913440;29;20255;-66
2023/01/02 09:46:39;;;;;;;27.27;15.13;;;;;;;;;;4913657;29;20223;-63
2023/01/02 09:49:08;;;;;;;23.60;13.70;;;;;;;;;;4913647;29;20207;-62
2023/01/02 09:51:35;;;;;;;24.60;14.17;;;;;;;;;;4910461;29;20200;-64
2023/01/02 09:54:12;;;;;;;25.03;14.00;;;;;;;;;;4912309;29;20723;-63
2023/01/02 09:56:39;;;;;;;25.87;13.60;;;;;;;;;;4893264;29;20314;-63
2023/01/02 09:59:14;;;;;;;23.37;14.20;;;;;;;;;;4911867;29;20246;-63
2023/01/02 10:01:53;;;;;;;27.10;14.43;;;;;;;;;;4912990;29;20651;-63
2023/01/02 10:04:40;;;;;;;25.00;13.70;;;;;;;;;;4910482;29;20373;-63
2023/01/02 10:07:10;;;;;;;24.37;13.00;;;;;;;;;;4917832;29;20203;-64
2023/01/02 10:09:44;;;;;;;24.83;13.83;;;;;;;;;;4911234;29;20206;-64
2023/01/02 10:12:12;;;;;;;26.97;12.87;;;;;;;;;;4902122;29;20631;-64
2023/01/02 10:15:05;;;;;;;23.13;12.60;;;;;;;;;;4910746;29;20555;-64
2023/01/02 10:17:33;;;;;;;25.43;11.80;;;;;;;;;;4911024;29;20259;-63
2023/01/02 10:20:05;;;;;;;21.83;12.00;;;;;;;;;;4911537;29;20256;-64
2023/01/02 10:22:36;;;;;;;20.97;12.37;;;;;;;;;;4911947;29;20203;-63
2023/01/02 10:25:07;;;;;;;24.17;12.90;;;;;;;;;;4895578;29;20888;-64
2023/01/02 10:27:37;;;;;;;22.33;12.90;;;;;;;;;;4913708;29;20187;-64
2023/01/02 10:30:06;;;;;;;24.50;13.73;;;;;;;;;;4911735;29;20208;-63
2023/01/02 10:32:33;;;;;;;23.90;12.77;;;;;;;;;;4912275;29;20222;-64
2023/01/02 10:35:06;;;;;;;24.17;12.97;;;;;;;;;;4911391;29;20671;-64
2023/01/02 10:37:33;;;;;;;24.33;12.53;;;;;;;;;;4911941;29;20330;-63
2023/01/02 10:40:00;;;;;;;23.27;11.60;;;;;;;;;;4913094;29;20203;-62
2023/01/02 10:42:27;;;;;;;26.10;12.50;;;;;;;;;;4913087;29;20544;-63
2023/01/02 10:44:54;;;;;;;19.13;10.60;;;;;;;;;;4912681;29;20209;-64
2023/01/02 10:47:23;;;;;;;25.23;12.00;;;;;;;;;;4911448;29;20576;-64
2023/01/02 10:49:51;;;;;;;20.13;11.70;;;;;;;;;;4911019;29;20203;-64
2023/01/02 10:52:25;;;;;;;21.43;8.60;;;;;;;;;;4900121;29;20191;-65
2023/01/02 10:54:53;;;;;;;23.63;11.50;;;;;;;;;;4908981;29;20275;-64
2023/01/02 10:57:31;;;;;;;20.77;11.53;;;;;;;;;;4907738;29;20981;-63
2023/01/02 10:59:59;;;;;;;23.03;11.67;;;;;;;;;;4898498;29;20674;-64
2023/01/02 11:02:48;;;;;;;17.97;9.03;;;;;;;;;;4910874;29;20697;-65
2023/01/02 11:05:22;;;;;;;18.57;10.77;;;;;;;;;;4891607;29;20587;-65
2023/01/02 11:07:49;;;;;;;20.97;11.10;;;;;;;;;;4909980;29;20655;-64
2023/01/02 11:10:27;;;;;;;22.40;11.03;;;;;;;;;;4909805;29;20196;-64
2023/01/02 11:12:54;;;;;;;18.27;10.93;;;;;;;;;;4898136;29;20290;-63
2023/01/02 11:15:25;;;;;;;22.23;11.60;;;;;;;;;;4911894;29;20219;-64
2023/01/02 11:17:51;;;;;;;22.47;11.17;;;;;;;;;;4912453;29;20863;-64
2023/01/02 11:20:32;;;;;;;18.33;10.53;;;;;;;;;;4910151;29;20199;-66
2023/01/02 11:23:00;;;;;;;22.67;11.13;;;;;;;;;;4911998;29;20278;-65
2023/01/02 11:25:28;;;;;;;15.93;8.47;;;;;;;;;;4909939;29;20241;-63
2023/01/02 11:27:58;;;;;;;19.23;9.63;;;;;;;;;;4911150;29;20331;-67
2023/01/02 11:30:28;;;;;;;19.57;9.50;;;;;;;;;;4894392;29;20283;-63
2023/01/02 11:33:02;;;;;;;17.87;10.57;;;;;;;;;;4912044;29;20698;-62
2023/01/02 11:35:32;;;;;;;18.70;9.07;;;;;;;;;;4911604;29;20302;-63
2023/01/02 11:38:25;;;;;;;17.63;9.53;;;;;;;;;;4911893;29;20529;-62
2023/01/02 11:40:59;;;;;;;18.43;9.60;;;;;;;;;;4910681;29;20895;-62
2023/01/02 11:43:48;;;;;;;16.67;8.40;;;;;;;;;;4912035;29;20250;-63
2023/01/02 11:46:23;;;;;;;21.33;10.07;;;;;;;;;;4911380;29;20191;-63
2023/01/02 11:48:50;;;;;;;17.47;9.77;;;;;;;;;;4906382;29;20201;-64
2023/01/02 11:51:17;;;;;;;17.90;9.53;;;;;;;;;;4911696;29;20195;-64
2023/01/02 11:53:45;;;;;;;19.67;9.37;;;;;;;;;;4912360;29;20199;-65
2023/01/02 11:56:13;;;;;;;14.07;7.73;;;;;;;;;;4911963;29;20313;-63
2023/01/02 11:58:47;;;;;;;17.03;9.10;;;;;;;;;;4912756;29;20239;-63
2023/01/02 12:01:23;;;;;;;16.40;8.83;;;;;;;;;;4910961;29;20215;-63
2023/01/02 12:03:50;;;;;;;15.07;8.33;;;;;;;;;;4926452;29;20221;-63
2023/01/02 12:06:18;;;;;;;17.13;8.47;;;;;;;;;;4908914;29;20837;-64
2023/01/02 12:08:49;;;;;;;21.77;9.40;;;;;;;;;;4912486;29;20195;-63
2023/01/02 12:11:30;;;;;;;17.27;9.33;;;;;;;;;;4908831;29;20199;-65
2023/01/02 12:14:09;;;;;;;19.50;9.73;;;;;;;;;;4912600;29;20231;-64
2023/01/02 12:16:40;;;;;;;16.23;9.07;;;;;;;;;;4912421;29;20219;-63
2023/01/02 12:19:43;;;;;;;19.67;8.80;;;;;;;;;;4894702;29;20183;-63
2023/01/02 12:22:29;;;;;;;18.57;10.07;;;;;;;;;;4894121;29;20283;-64
2023/01/02 12:25:32;;;;;;;19.67;9.87;;;;;;;;;;4901064;29;20694;-63
2023/01/02 12:28:06;;;;;;;21.70;10.80;;;;;;;;;;4911220;29;20195;-63
2023/01/02 12:30:33;;;;;;;19.10;10.57;;;;;;;;;;4910831;29;20291;-63
2023/01/02 12:33:04;;;;;;;20.70;10.63;;;;;;;;;;4910449;29;20243;-64
2023/01/02 12:35:48;;;;;;;20.57;11.30;;;;;;;;;;4894278;29;20223;-62
2023/01/02 12:38:25;;;;;;;18.80;10.63;;;;;;;;;;4916106;29;20187;-63
2023/01/02 12:41:02;;;;;;;15.13;8.70;;;;;;;;;;4920297;29;20259;-63
2023/01/02 12:43:58;;;;;;;19.20;9.53;;;;;;;;;;4908598;29;20182;-62
2023/01/02 12:46:43;;;;;;;17.47;8.87;;;;;;;;;;4935253;29;20232;-64
2023/01/02 12:49:14;;;;;;;15.37;8.37;;;;;;;;;;4904928;29;20248;-63
2023/01/02 12:51:57;;;;;;;16.87;9.23;;;;;;;;;;4928084;29;20208;-63
2023/01/02 12:54:23;;;;;;;14.47;8.27;;;;;;;;;;4913252;29;20549;-63
2023/01/02 12:56:57;;;;;;;14.70;7.97;;;;;;;;;;4914137;29;20211;-63
2023/01/02 12:59:24;;;;;;;18.90;8.40;;;;;;;;;;4913179;29;20239;-63
2023/01/02 13:02:04;;;;;;;18.27;8.07;;;;;;;;;;4914037;29;20207;-63
2023/01/02 13:04:37;;;;;;;15.10;8.00;;;;;;;;;;4913287;29;20195;-63
2023/01/02 13:07:03;;;;;;;16.63;8.37;;;;;;;;;;4913010;29;20220;-62
2023/01/02 13:09:39;;;;;;;14.20;8.50;;;;;;;;;;4916166;29;20612;-62
2023/01/02 13:12:24;;;;;;;14.13;8.50;;;;;;;;;;4909352;29;20337;-62
2023/01/02 13:14:52;;;;;;;15.80;7.73;;;;;;;;;;4913975;29;20204;-62
2023/01/02 13:17:38;;;;;;;15.03;7.50;;;;;;;;;;4912857;29;20756;-62
2023/01/02 13:20:26;;;;;;;12.87;6.97;;;;;;;;;;4913334;29;20207;-63
2023/01/02 13:23:08;;;;;;;17.20;8.13;;;;;;;;;;4913824;29;20267;-62
2023/01/02 13:25:36;;;;;;;14.27;6.87;;;;;;;;;;4907103;29;20268;-62
2023/01/02 13:28:06;;;;;;;16.30;8.47;;;;;;;;;;4897049;29;20202;-64
2023/01/02 13:30:33;;;;;;;15.80;8.37;;;;;;;;;;4919830;29;20195;-63
2023/01/02 13:33:01;;;;;;;17.23;8.67;;;;;;;;;;4914094;29;20195;-63
2023/01/02 13:35:45;;;;;;;19.80;9.27;;;;;;;;;;4908290;29;20682;-62
2023/01/02 13:38:11;;;;;;;16.50;8.70;;;;;;;;;;4925134;29;20625;-64
2023/01/02 13:40:38;;;;;;;14.53;8.13;;;;;;;;;;4894058;29;20207;-62
2023/01/02 13:43:07;;;;;;;15.43;8.47;;;;;;;;;;4906501;29;20414;-62
2023/01/02 13:45:36;;;;;;;17.17;7.97;;;;;;;;;;4912818;29;20199;-63
2023/01/02 13:48:31;;;;;;;15.80;8.17;;;;;;;;;;4913838;29;20306;-64
2023/01/02 13:51:06;;;;;;;14.03;8.63;;;;;;;;;;4913570;29;20636;-63
2023/01/02 13:53:37;;;;;;;16.07;8.27;;;;;;;;;;4896273;29;20199;-63
2023/01/02 13:56:05;;;;;;;13.90;7.93;;;;;;;;;;4904818;29;20270;-63
2023/01/02 13:58:35;;;;;;;15.10;7.60;;;;;;;;;;4913261;29;20195;-63
2023/01/02 14:01:21;;;;;;;13.43;7.73;;;;;;;;;;4913041;29;20192;-63
2023/01/02 14:03:48;;;;;;;15.60;7.53;;;;;;;;;;4913118;29;20648;-63
2023/01/02 14:06:31;;;;;;;13.87;7.70;;;;;;;;;;4897078;29;20195;-64
2023/01/02 14:09:04;;;;;;;17.17;6.83;;;;;;;;;;4912790;29;20227;-62
2023/01/02 14:11:31;;;;;;;15.43;7.13;;;;;;;;;;4912812;29;20303;-64
2023/01/02 14:14:22;;;;;;;16.43;7.70;;;;;;;;;;4898943;29;20265;-63
2023/01/02 14:16:55;;;;;;;17.37;8.33;;;;;;;;;;4923205;29;20215;-63
2023/01/02 14:19:22;;;;;;;15.80;8.67;;;;;;;;;;4921233;29;20318;-64
2023/01/02 14:21:50;;;;;;;15.80;7.83;;;;;;;;;;4904365;29;20196;-63
2023/01/02 14:24:24;;;;;;;14.30;7.40;;;;;;;;;;4919794;29;20207;-63
2023/01/02 14:27:06;;;;;;;11.73;7.13;;;;;;;;;;4934740;29;20241;-62
2023/01/02 14:29:38;;;;;;;16.00;8.07;;;;;;;;;;4917590;29;20202;-63
2023/01/02 14:32:07;;;;;;;14.00;6.43;;;;;;;;;;4939197;29;20238;-64
2023/01/02 14:34:34;;;;;;;15.30;6.87;;;;;;;;;;4934694;29;20187;-63
2023/01/02 14:37:01;;;;;;;14.50;7.20;;;;;;;;;;4931463;29;20226;-64
2023/01/02 14:39:29;;;;;;;16.87;8.90;;;;;;;;;;4930765;29;20195;-65
2023/01/02 14:44:54;;;;;;;11.27;5.97;;;;;;;;;;4928230;29;20198;-64
2023/01/02 14:47:24;;;;;;;13.87;6.83;;;;;;;;;;4913958;29;20199;-63
2023/01/02 14:49:56;;;;;;;14.37;6.33;;;;;;;;;;4929326;29;20252;-65
2023/01/02 14:52:27;;;;;;;10.83;5.67;;;;;;;;;;4921882;29;20199;-63
2023/01/02 14:55:03;;;;;;;12.43;5.00;;;;;;;;;;4896679;29;20199;-63
2023/01/02 14:57:31;;;;;;;10.77;5.53;;;;;;;;;;4930847;29;20222;-63
2023/01/02 14:59:59;;;;;;;9.37;5.47;;;;;;;;;;4929363;29;20271;-63
2023/01/02 15:02:29;;;;;;;9.77;5.40;;;;;;;;;;4930370;29;20610;-63
2023/01/02 15:05:02;;;;;;;8.77;4.90;;;;;;;;;;4930024;29;20199;-63
2023/01/02 15:07:29;;;;;;;11.43;5.40;;;;;;;;;;4917728;29;20754;-63
2023/01/02 15:09:57;;;;;;;12.47;5.73;;;;;;;;;;4921109;29;20899;-63
2023/01/02 15:15:16;;;;;;;9.33;5.27;;;;;;;;;;4918843;29;20308;-63
2023/01/02 15:17:46;;;;;;;9.40;5.03;;;;;;;;;;4942000;29;20285;-64
2023/01/02 15:20:18;;;;;;;13.07;6.97;;;;;;;;;;4919900;29;20289;-64
2023/01/02 15:22:45;;;;;;;11.07;6.53;;;;;;;;;;4919457;29;20213;-64
2023/01/02 15:25:13;;;;;;;11.43;5.73;;;;;;;;;;4937706;28;20310;-62
2023/01/02 15:27:42;;;;;;;9.83;6.17;;;;;;;;;;4938666;29;20194;-62
2023/01/02 15:30:28;;;;;;;14.10;6.70;;;;;;;;;;4934970;29;20179;-64
2023/01/02 15:32:55;;;;;;;16.03;6.40;;;;;;;;;;4931172;29;20523;-64
2023/01/02 15:35:39;;;;;;;12.03;7.30;;;;;;;;;;4931518;29;20534;-64